sensor_id;sensor_type;location;lat;lon;timestamp;temperature;humidity
47162;DHT22;32921;53.256;8.198;2023-07-29T00:59:03;17.90;99.90
47162;DHT22;32921;53.256;8.198;2023-07-29T01:01:30;16.30;99.90
47162;DHT22;32921;53.256;8.198;2023-07-29T01:03:56;16.10;99.90
47162;DHT22;32921;53.256;8.198;2023-07-29T01:12:11;15.80;99.90
47162;DHT22;32921;53.256;8.198;2023-07-29T01:17:15;15.50;99.90
47162;DHT22;32921;53.256;8.198;2023-07-29T01:19:55;15.50;99.90
47162;DHT22;32921;53.256;8.198;2023-07-29T01:22:24;15.50;99.90
47162;DHT22;32921;53.256;8.198;2023-07-29T01:24:49;15.50;99.90
47162;DHT22;32921;53.256;8.198;2023-07-29T01:27:15;15.50;99.90
47162;DHT22;32921;53.256;8.198;2023-07-29T01:29:40;15.90;99.90
47162;DHT22;32921;53.256;8.198;2023-07-29T01:32:19;16.00;99.90
47162;DHT22;32921;53.256;8.198;2023-07-29T01:34:50;16.00;99.90
47162;DHT22;32921;53.256;8.198;2023-07-29T01:37:24;15.80;99.90
47162;DHT22;32921;53.256;8.198;2023-07-29T01:39:54;15.60;99.90
47162;DHT22;32921;53.256;8.198;2023-07-29T01:42:21;15.50;99.90
47162;DHT22;32921;53.256;8.198;2023-07-29T01:44:47;15.30;99.90
47162;DHT22;32921;53.256;8.198;2023-07-29T01:47:13;15.30;99.90
47162;DHT22;32921;53.256;8.198;2023-07-29T01:49:38;15.20;99.90
47162;DHT22;32921;53.256;8.198;2023-07-29T01:52:04;15.20;99.90
47162;DHT22;32921;53.256;8.198;2023-07-29T01:54:29;15.30;99.90
47162;DHT22;32921;53.256;8.198;2023-07-29T01:56:55;15.50;99.90
47162;DHT22;32921;53.256;8.198;2023-07-29T01:59:21;15.60;99.90
47162;DHT22;32921;53.256;8.198;2023-07-29T02:01:46;15.60;99.90
47162;DHT22;32921;53.256;8.198;2023-07-29T02:04:12;15.80;99.90
47162;DHT22;32921;53.256;8.198;2023-07-29T02:06:37;16.00;99.90
47162;DHT22;32921;53.256;8.198;2023-07-29T02:09:03;16.00;99.90
47162;DHT22;32921;53.256;8.198;2023-07-29T02:11:30;16.00;99.90
47162;DHT22;32921;53.256;8.198;2023-07-29T02:13:56;15.90;99.90
47162;DHT22;32921;53.256;8.198;2023-07-29T02:16:22;15.90;99.90
47162;DHT22;32921;53.256;8.198;2023-07-29T02:18:50;16.00;99.90
47162;DHT22;32921;53.256;8.198;2023-07-29T02:21:16;16.10;99.90
47162;DHT22;32921;53.256;8.198;2023-07-29T02:23:42;16.00;99.90
47162;DHT22;32921;53.256;8.198;2023-07-29T02:26:07;16.10;99.90
47162;DHT22;32921;53.256;8.198;2023-07-29T02:28:33;16.40;99.90
47162;DHT22;32921;53.256;8.198;2023-07-29T02:31:15;16.50;99.90
47162;DHT22;32921;53.256;8.198;2023-07-29T02:33:41;16.70;99.90
47162;DHT22;32921;53.256;8.198;2023-07-29T02:36:06;16.80;99.90
47162;DHT22;32921;53.256;8.198;2023-07-29T02:38:32;16.90;99.90
47162;DHT22;32921;53.256;8.198;2023-07-29T02:40:57;17.00;99.90
47162;DHT22;32921;53.256;8.198;2023-07-29T02:43:23;17.10;99.90
47162;DHT22;32921;53.256;8.198;2023-07-29T02:45:48;17.20;99.90
47162;DHT22;32921;53.256;8.198;2023-07-29T02:48:14;17.30;99.90
47162;DHT22;32921;53.256;8.198;2023-07-29T02:50:39;17.30;99.90
47162;DHT22;32921;53.256;8.198;2023-07-29T02:53:05;17.30;99.90
47162;DHT22;32921;53.256;8.198;2023-07-29T02:55:31;17.20;99.90
47162;DHT22;32921;53.256;8.198;2023-07-29T02:57:56;17.20;99.90
47162;DHT22;32921;53.256;8.198;2023-07-29T03:00:22;17.20;99.90
47162;DHT22;32921;53.256;8.198;2023-07-29T03:02:47;17.30;99.90
47162;DHT22;32921;53.256;8.198;2023-07-29T03:05:13;17.30;99.90
47162;DHT22;32921;53.256;8.198;2023-07-29T03:07:38;17.40;99.90
47162;DHT22;32921;53.256;8.198;2023-07-29T03:10:04;17.40;99.90
47162;DHT22;32921;53.256;8.198;2023-07-29T03:12:30;17.40;99.90
47162;DHT22;32921;53.256;8.198;2023-07-29T03:14:56;17.40;99.90
47162;DHT22;32921;53.256;8.198;2023-07-29T03:17:22;17.50;99.90
47162;DHT22;32921;53.256;8.198;2023-07-29T03:19:47;17.50;99.90
47162;DHT22;32921;53.256;8.198;2023-07-29T03:22:13;17.50;99.90
47162;DHT22;32921;53.256;8.198;2023-07-29T03:24:38;17.50;99.90
47162;DHT22;32921;53.256;8.198;2023-07-29T03:27:04;17.60;99.90
47162;DHT22;32921;53.256;8.198;2023-07-29T03:29:30;17.50;99.90
47162;DHT22;32921;53.256;8.198;2023-07-29T03:31:56;17.60;99.90
47162;DHT22;32921;53.256;8.198;2023-07-29T03:34:21;17.60;99.90
47162;DHT22;32921;53.256;8.198;2023-07-29T03:36:47;17.60;99.90
47162;DHT22;32921;53.256;8.198;2023-07-29T03:39:14;17.60;99.90
47162;DHT22;32921;53.256;8.198;2023-07-29T03:41:39;17.60;99.90
47162;DHT22;32921;53.256;8.198;2023-07-29T03:44:05;17.70;99.90
47162;DHT22;32921;53.256;8.198;2023-07-29T03:46:31;17.70;99.90
47162;DHT22;32921;53.256;8.198;2023-07-29T03:48:56;17.60;99.90
47162;DHT22;32921;53.256;8.198;2023-07-29T03:51:22;17.60;99.90
47162;DHT22;32921;53.256;8.198;2023-07-29T03:53:49;17.60;99.90
47162;DHT22;32921;53.256;8.198;2023-07-29T03:56:15;17.60;99.90
47162;DHT22;32921;53.256;8.198;2023-07-29T03:58:41;17.70;99.90
47162;DHT22;32921;53.256;8.198;2023-07-29T04:01:06;17.70;99.90
47162;DHT22;32921;53.256;8.198;2023-07-29T04:03:33;17.70;99.90
47162;DHT22;32921;53.256;8.198;2023-07-29T04:05:59;17.70;99.90
47162;DHT22;32921;53.256;8.198;2023-07-29T04:08:25;17.70;99.90
47162;DHT22;32921;53.256;8.198;2023-07-29T04:10:50;17.50;99.90
47162;DHT22;32921;53.256;8.198;2023-07-29T04:13:16;17.50;99.90
47162;DHT22;32921;53.256;8.198;2023-07-29T04:15:42;17.50;99.90
47162;DHT22;32921;53.256;8.198;2023-07-29T04:18:07;17.40;99.90
47162;DHT22;32921;53.256;8.198;2023-07-29T04:20:33;17.40;99.90
47162;DHT22;32921;53.256;8.198;2023-07-29T04:22:59;17.50;99.90
47162;DHT22;32921;53.256;8.198;2023-07-29T04:25:24;17.50;99.90
47162;DHT22;32921;53.256;8.198;2023-07-29T04:27:50;17.40;99.90
47162;DHT22;32921;53.256;8.198;2023-07-29T04:30:16;17.50;99.90
47162;DHT22;32921;53.256;8.198;2023-07-29T04:32:41;17.60;99.90
47162;DHT22;32921;53.256;8.198;2023-07-29T04:35:08;17.70;99.90
47162;DHT22;32921;53.256;8.198;2023-07-29T04:37:34;17.80;99.90
47162;DHT22;32921;53.256;8.198;2023-07-29T04:39:59;17.80;99.90
47162;DHT22;32921;53.256;8.198;2023-07-29T04:42:25;17.80;99.90
47162;DHT22;32921;53.256;8.198;2023-07-29T04:44:50;17.90;99.90
47162;DHT22;32921;53.256;8.198;2023-07-29T04:47:16;18.00;99.90
47162;DHT22;32921;53.256;8.198;2023-07-29T04:49:42;18.00;99.90
47162;DHT22;32921;53.256;8.198;2023-07-29T04:52:08;18.00;99.90
47162;DHT22;32921;53.256;8.198;2023-07-29T04:54:33;18.00;99.90
47162;DHT22;32921;53.256;8.198;2023-07-29T04:56:59;18.00;99.90
47162;DHT22;32921;53.256;8.198;2023-07-29T04:59:24;18.00;99.90
47162;DHT22;32921;53.256;8.198;2023-07-29T05:01:50;18.10;99.90
47162;DHT22;32921;53.256;8.198;2023-07-29T05:04:16;18.10;99.90
47162;DHT22;32921;53.256;8.198;2023-07-29T05:06:41;18.20;99.90
47162;DHT22;32921;53.256;8.198;2023-07-29T05:09:14;18.20;99.90
47162;DHT22;32921;53.256;8.198;2023-07-29T05:11:41;18.30;99.90
47162;DHT22;32921;53.256;8.198;2023-07-29T05:14:06;18.40;99.90
47162;DHT22;32921;53.256;8.198;2023-07-29T05:16:32;18.50;99.90
47162;DHT22;32921;53.256;8.198;2023-07-29T05:18:57;18.50;99.90
47162;DHT22;32921;53.256;8.198;2023-07-29T05:21:23;18.60;99.90
47162;DHT22;32921;53.256;8.198;2023-07-29T05:23:49;18.60;99.90
47162;DHT22;32921;53.256;8.198;2023-07-29T05:26:14;18.60;99.90
47162;DHT22;32921;53.256;8.198;2023-07-29T05:28:40;18.70;99.90
47162;DHT22;32921;53.256;8.198;2023-07-29T05:31:05;18.70;99.90
47162;DHT22;32921;53.256;8.198;2023-07-29T05:33:31;18.70;99.90
47162;DHT22;32921;53.256;8.198;2023-07-29T05:35:57;18.80;99.90
47162;DHT22;32921;53.256;8.198;2023-07-29T05:38:22;18.80;99.90
47162;DHT22;32921;53.256;8.198;2023-07-29T05:40:48;18.90;99.90
47162;DHT22;32921;53.256;8.198;2023-07-29T05:43:14;19.00;99.90
47162;DHT22;32921;53.256;8.198;2023-07-29T05:45:40;19.10;99.90
47162;DHT22;32921;53.256;8.198;2023-07-29T05:48:05;19.20;99.90
47162;DHT22;32921;53.256;8.198;2023-07-29T05:50:31;19.30;99.90
47162;DHT22;32921;53.256;8.198;2023-07-29T05:52:57;19.40;99.90
47162;DHT22;32921;53.256;8.198;2023-07-29T05:55:22;19.40;99.90
47162;DHT22;32921;53.256;8.198;2023-07-29T05:57:48;19.40;99.90
47162;DHT22;32921;53.256;8.198;2023-07-29T06:00:13;19.50;99.90
47162;DHT22;32921;53.256;8.198;2023-07-29T06:02:39;19.50;99.90
47162;DHT22;32921;53.256;8.198;2023-07-29T06:05:06;19.50;99.90
47162;DHT22;32921;53.256;8.198;2023-07-29T06:07:32;19.50;99.90
47162;DHT22;32921;53.256;8.198;2023-07-29T06:09:59;19.50;99.90
47162;DHT22;32921;53.256;8.198;2023-07-29T06:12:25;19.50;99.90
47162;DHT22;32921;53.256;8.198;2023-07-29T06:14:50;19.60;99.90
47162;DHT22;32921;53.256;8.198;2023-07-29T06:17:16;19.60;99.90
47162;DHT22;32921;53.256;8.198;2023-07-29T06:19:41;19.60;99.90
47162;DHT22;32921;53.256;8.198;2023-07-29T06:22:07;19.70;99.90
47162;DHT22;32921;53.256;8.198;2023-07-29T06:24:33;19.70;99.90
47162;DHT22;32921;53.256;8.198;2023-07-29T06:26:58;19.70;99.90
47162;DHT22;32921;53.256;8.198;2023-07-29T06:29:24;19.80;99.90
47162;DHT22;32921;53.256;8.198;2023-07-29T06:31:49;19.90;99.90
47162;DHT22;32921;53.256;8.198;2023-07-29T06:34:17;19.90;99.90
47162;DHT22;32921;53.256;8.198;2023-07-29T06:36:43;19.90;99.90
47162;DHT22;32921;53.256;8.198;2023-07-29T06:39:09;19.80;99.90
47162;DHT22;32921;53.256;8.198;2023-07-29T06:41:35;19.80;99.90
47162;DHT22;32921;53.256;8.198;2023-07-29T06:44:00;20.00;99.90
47162;DHT22;32921;53.256;8.198;2023-07-29T06:46:26;19.90;99.90
47162;DHT22;32921;53.256;8.198;2023-07-29T06:48:52;20.00;99.90
47162;DHT22;32921;53.256;8.198;2023-07-29T06:51:17;20.20;99.90
47162;DHT22;32921;53.256;8.198;2023-07-29T06:53:43;20.30;99.90
47162;DHT22;32921;53.256;8.198;2023-07-29T06:56:08;20.50;99.90
47162;DHT22;32921;53.256;8.198;2023-07-29T06:58:34;20.90;99.90
47162;DHT22;32921;53.256;8.198;2023-07-29T07:01:00;20.90;99.90
47162;DHT22;32921;53.256;8.198;2023-07-29T07:03:26;20.90;99.90
47162;DHT22;32921;53.256;8.198;2023-07-29T07:05:51;21.20;99.90
47162;DHT22;32921;53.256;8.198;2023-07-29T07:08:17;21.10;99.90
47162;DHT22;32921;53.256;8.198;2023-07-29T07:10:42;21.20;99.90
47162;DHT22;32921;53.256;8.198;2023-07-29T07:13:08;21.20;99.90
47162;DHT22;32921;53.256;8.198;2023-07-29T07:15:33;21.10;99.90
47162;DHT22;32921;53.256;8.198;2023-07-29T07:17:59;21.30;99.90
47162;DHT22;32921;53.256;8.198;2023-07-29T07:20:25;21.70;99.90
47162;DHT22;32921;53.256;8.198;2023-07-29T07:22:50;21.70;99.90
47162;DHT22;32921;53.256;8.198;2023-07-29T07:25:16;22.00;99.90
47162;DHT22;32921;53.256;8.198;2023-07-29T07:27:41;22.10;99.90
47162;DHT22;32921;53.256;8.198;2023-07-29T07:30:07;22.00;99.90
47162;DHT22;32921;53.256;8.198;2023-07-29T07:32:33;22.00;99.90
47162;DHT22;32921;53.256;8.198;2023-07-29T07:34:58;22.40;99.90
47162;DHT22;32921;53.256;8.198;2023-07-29T07:37:24;22.50;99.90
47162;DHT22;32921;53.256;8.198;2023-07-29T07:39:50;22.40;99.90
47162;DHT22;32921;53.256;8.198;2023-07-29T07:42:15;22.50;99.90
47162;DHT22;32921;53.256;8.198;2023-07-29T07:44:41;22.80;99.90
47162;DHT22;32921;53.256;8.198;2023-07-29T07:47:06;22.90;99.90
47162;DHT22;32921;53.256;8.198;2023-07-29T07:49:32;23.00;99.90
47162;DHT22;32921;53.256;8.198;2023-07-29T07:51:57;22.90;99.90
47162;DHT22;32921;53.256;8.198;2023-07-29T07:54:23;23.10;99.90
47162;DHT22;32921;53.256;8.198;2023-07-29T07:56:49;22.90;99.90
47162;DHT22;32921;53.256;8.198;2023-07-29T07:59:14;22.60;99.90
47162;DHT22;32921;53.256;8.198;2023-07-29T08:01:40;22.60;99.90
47162;DHT22;32921;53.256;8.198;2023-07-29T08:04:06;22.80;99.90
47162;DHT22;32921;53.256;8.198;2023-07-29T08:06:32;23.00;99.90
47162;DHT22;32921;53.256;8.198;2023-07-29T08:08:58;23.20;99.90
47162;DHT22;32921;53.256;8.198;2023-07-29T08:11:24;23.80;99.90
47162;DHT22;32921;53.256;8.198;2023-07-29T08:13:49;23.60;99.90
47162;DHT22;32921;53.256;8.198;2023-07-29T08:16:15;23.40;99.90
47162;DHT22;32921;53.256;8.198;2023-07-29T08:18:41;23.60;99.90
47162;DHT22;32921;53.256;8.198;2023-07-29T08:21:06;24.30;99.90
47162;DHT22;32921;53.256;8.198;2023-07-29T08:23:34;24.80;99.90
47162;DHT22;32921;53.256;8.198;2023-07-29T08:26:03;24.80;99.90
47162;DHT22;32921;53.256;8.198;2023-07-29T08:28:34;24.00;99.90
47162;DHT22;32921;53.256;8.198;2023-07-29T08:31:00;24.00;99.90
47162;DHT22;32921;53.256;8.198;2023-07-29T08:33:25;24.60;99.90
47162;DHT22;32921;53.256;8.198;2023-07-29T08:35:51;24.80;99.90
47162;DHT22;32921;53.256;8.198;2023-07-29T08:38:17;24.80;99.90
47162;DHT22;32921;53.256;8.198;2023-07-29T08:43:59;24.60;99.90
47162;DHT22;32921;53.256;8.198;2023-07-29T08:46:28;25.00;99.90
47162;DHT22;32921;53.256;8.198;2023-07-29T08:48:54;24.80;99.90
47162;DHT22;32921;53.256;8.198;2023-07-29T08:51:21;25.20;99.90
47162;DHT22;32921;53.256;8.198;2023-07-29T08:53:49;25.30;99.90
47162;DHT22;32921;53.256;8.198;2023-07-29T08:56:15;25.50;99.90
47162;DHT22;32921;53.256;8.198;2023-07-29T08:58:41;25.90;99.90
47162;DHT22;32921;53.256;8.198;2023-07-29T09:01:07;26.10;99.90
47162;DHT22;32921;53.256;8.198;2023-07-29T09:03:33;26.40;99.70
47162;DHT22;32921;53.256;8.198;2023-07-29T09:05:59;26.00;99.90
47162;DHT22;32921;53.256;8.198;2023-07-29T09:08:27;25.80;99.90
47162;DHT22;32921;53.256;8.198;2023-07-29T09:10:54;25.10;99.90
47162;DHT22;32921;53.256;8.198;2023-07-29T09:13:22;25.00;99.90
47162;DHT22;32921;53.256;8.198;2023-07-29T09:15:47;25.00;99.90
47162;DHT22;32921;53.256;8.198;2023-07-29T09:18:19;25.00;99.90
47162;DHT22;32921;53.256;8.198;2023-07-29T09:20:49;25.50;99.90
47162;DHT22;32921;53.256;8.198;2023-07-29T09:23:15;25.70;99.90
47162;DHT22;32921;53.256;8.198;2023-07-29T09:25:41;26.60;98.00
47162;DHT22;32921;53.256;8.198;2023-07-29T09:28:15;26.60;95.70
47162;DHT22;32921;53.256;8.198;2023-07-29T09:30:42;26.10;94.80
47162;DHT22;32921;53.256;8.198;2023-07-29T09:33:09;25.80;96.50
47162;DHT22;32921;53.256;8.198;2023-07-29T09:35:36;24.80;99.30
47162;DHT22;32921;53.256;8.198;2023-07-29T09:38:02;23.70;99.90
47162;DHT22;32921;53.256;8.198;2023-07-29T09:40:37;23.20;99.90
47162;DHT22;32921;53.256;8.198;2023-07-29T09:43:04;23.10;99.90
47162;DHT22;32921;53.256;8.198;2023-07-29T09:45:33;24.10;99.90
47162;DHT22;32921;53.256;8.198;2023-07-29T09:47:59;25.00;99.90
47162;DHT22;32921;53.256;8.198;2023-07-29T09:50:25;24.90;99.90
47162;DHT22;32921;53.256;8.198;2023-07-29T09:52:52;25.60;99.90
47162;DHT22;32921;53.256;8.198;2023-07-29T09:55:19;26.30;97.50
47162;DHT22;32921;53.256;8.198;2023-07-29T09:57:46;26.50;95.60
47162;DHT22;32921;53.256;8.198;2023-07-29T10:00:12;26.90;96.90
47162;DHT22;32921;53.256;8.198;2023-07-29T10:02:43;27.50;94.40
47162;DHT22;32921;53.256;8.198;2023-07-29T10:05:09;28.30;90.70
47162;DHT22;32921;53.256;8.198;2023-07-29T10:07:39;28.60;89.10
47162;DHT22;32921;53.256;8.198;2023-07-29T10:10:06;28.20;86.20
47162;DHT22;32921;53.256;8.198;2023-07-29T10:12:32;27.20;88.70
47162;DHT22;32921;53.256;8.198;2023-07-29T10:15:05;26.30;90.70
47162;DHT22;32921;53.256;8.198;2023-07-29T10:17:36;25.80;93.40
47162;DHT22;32921;53.256;8.198;2023-07-29T10:20:09;26.20;92.80
47162;DHT22;32921;53.256;8.198;2023-07-29T10:22:40;26.20;92.50
47162;DHT22;32921;53.256;8.198;2023-07-29T10:25:18;26.10;92.70
47162;DHT22;32921;53.256;8.198;2023-07-29T10:28:07;25.90;93.20
47162;DHT22;32921;53.256;8.198;2023-07-29T10:30:33;25.70;91.50
47162;DHT22;32921;53.256;8.198;2023-07-29T10:33:02;25.60;92.60
47162;DHT22;32921;53.256;8.198;2023-07-29T10:35:28;25.40;92.60
47162;DHT22;32921;53.256;8.198;2023-07-29T10:37:55;25.90;92.70
47162;DHT22;32921;53.256;8.198;2023-07-29T10:40:21;26.60;92.30
47162;DHT22;32921;53.256;8.198;2023-07-29T10:43:11;27.60;91.40
47162;DHT22;32921;53.256;8.198;2023-07-29T10:45:39;28.20;85.10
47162;DHT22;32921;53.256;8.198;2023-07-29T10:48:06;28.30;84.40
47162;DHT22;32921;53.256;8.198;2023-07-29T10:50:34;28.70;85.00
47162;DHT22;32921;53.256;8.198;2023-07-29T10:53:00;28.90;80.70
47162;DHT22;32921;53.256;8.198;2023-07-29T10:58:05;29.00;81.90
47162;DHT22;32921;53.256;8.198;2023-07-29T11:00:31;28.40;76.30
47162;DHT22;32921;53.256;8.198;2023-07-29T11:03:05;27.40;79.70
47162;DHT22;32921;53.256;8.198;2023-07-29T11:05:46;27.10;87.50
47162;DHT22;32921;53.256;8.198;2023-07-29T11:08:31;26.40;87.10
47162;DHT22;32921;53.256;8.198;2023-07-29T11:11:03;26.10;87.70
47162;DHT22;32921;53.256;8.198;2023-07-29T11:13:30;26.10;89.90
47162;DHT22;32921;53.256;8.198;2023-07-29T11:15:57;26.20;90.10
47162;DHT22;32921;53.256;8.198;2023-07-29T11:18:30;26.30;90.90
47162;DHT22;32921;53.256;8.198;2023-07-29T11:20:57;26.50;87.50
47162;DHT22;32921;53.256;8.198;2023-07-29T11:23:36;26.20;85.00
47162;DHT22;32921;53.256;8.198;2023-07-29T11:26:03;26.20;88.50
47162;DHT22;32921;53.256;8.198;2023-07-29T11:28:29;26.20;90.90
47162;DHT22;32921;53.256;8.198;2023-07-29T11:30:55;25.70;90.10
47162;DHT22;32921;53.256;8.198;2023-07-29T11:33:23;25.30;90.20
47162;DHT22;32921;53.256;8.198;2023-07-29T11:35:49;24.90;91.80
47162;DHT22;32921;53.256;8.198;2023-07-29T11:38:16;25.20;93.80
47162;DHT22;32921;53.256;8.198;2023-07-29T11:40:42;25.60;94.50
47162;DHT22;32921;53.256;8.198;2023-07-29T11:43:08;25.90;90.80
47162;DHT22;32921;53.256;8.198;2023-07-29T11:45:33;26.30;91.00
47162;DHT22;32921;53.256;8.198;2023-07-29T11:48:01;27.10;89.70
47162;DHT22;32921;53.256;8.198;2023-07-29T11:50:27;27.30;91.00
47162;DHT22;32921;53.256;8.198;2023-07-29T11:52:52;27.90;85.10
47162;DHT22;32921;53.256;8.198;2023-07-29T11:55:18;28.00;83.00
47162;DHT22;32921;53.256;8.198;2023-07-29T11:57:50;27.40;82.60
47162;DHT22;32921;53.256;8.198;2023-07-29T12:00:16;27.90;86.50
47162;DHT22;32921;53.256;8.198;2023-07-29T12:02:44;28.90;82.70
47162;DHT22;32921;53.256;8.198;2023-07-29T12:05:10;29.00;77.90
47162;DHT22;32921;53.256;8.198;2023-07-29T12:07:42;29.50;74.30
47162;DHT22;32921;53.256;8.198;2023-07-29T12:10:07;29.90;75.20
47162;DHT22;32921;53.256;8.198;2023-07-29T12:12:35;29.70;75.70
47162;DHT22;32921;53.256;8.198;2023-07-29T12:15:02;29.70;70.70
47162;DHT22;32921;53.256;8.198;2023-07-29T12:17:28;30.10;71.90
47162;DHT22;32921;53.256;8.198;2023-07-29T12:19:54;30.80;73.00
47162;DHT22;32921;53.256;8.198;2023-07-29T12:22:20;31.10;69.20
47162;DHT22;32921;53.256;8.198;2023-07-29T12:24:47;29.80;69.20
47162;DHT22;32921;53.256;8.198;2023-07-29T12:27:16;30.20;69.30
47162;DHT22;32921;53.256;8.198;2023-07-29T12:29:43;30.80;69.90
47162;DHT22;32921;53.256;8.198;2023-07-29T12:32:09;31.30;68.90
47162;DHT22;32921;53.256;8.198;2023-07-29T12:34:35;31.70;65.00
47162;DHT22;32921;53.256;8.198;2023-07-29T12:37:03;32.30;64.60
47162;DHT22;32921;53.256;8.198;2023-07-29T12:39:30;32.20;60.00
47162;DHT22;32921;53.256;8.198;2023-07-29T12:41:58;31.20;59.30
47162;DHT22;32921;53.256;8.198;2023-07-29T12:44:25;30.70;62.10
47162;DHT22;32921;53.256;8.198;2023-07-29T12:46:51;30.60;65.50
47162;DHT22;32921;53.256;8.198;2023-07-29T12:49:17;30.30;64.80
47162;DHT22;32921;53.256;8.198;2023-07-29T12:51:43;30.30;65.80
47162;DHT22;32921;53.256;8.198;2023-07-29T12:54:08;30.40;65.70
47162;DHT22;32921;53.256;8.198;2023-07-29T12:56:34;30.60;62.50
47162;DHT22;32921;53.256;8.198;2023-07-29T12:59:01;30.00;64.00
47162;DHT22;32921;53.256;8.198;2023-07-29T13:01:27;30.30;63.90
47162;DHT22;32921;53.256;8.198;2023-07-29T13:03:53;30.90;62.20
47162;DHT22;32921;53.256;8.198;2023-07-29T13:06:20;32.00;59.80
47162;DHT22;32921;53.256;8.198;2023-07-29T13:08:46;32.60;60.30
47162;DHT22;32921;53.256;8.198;2023-07-29T13:11:12;32.30;57.90
47162;DHT22;32921;53.256;8.198;2023-07-29T13:13:38;32.70;56.40
47162;DHT22;32921;53.256;8.198;2023-07-29T13:16:04;32.70;55.40
47162;DHT22;32921;53.256;8.198;2023-07-29T13:18:29;32.20;55.70
47162;DHT22;32921;53.256;8.198;2023-07-29T13:20:55;30.70;61.00
47162;DHT22;32921;53.256;8.198;2023-07-29T13:23:21;29.90;59.50
47162;DHT22;32921;53.256;8.198;2023-07-29T13:25:47;28.90;63.10
47162;DHT22;32921;53.256;8.198;2023-07-29T13:28:13;27.80;66.00
47162;DHT22;32921;53.256;8.198;2023-07-29T13:30:41;27.00;69.10
47162;DHT22;32921;53.256;8.198;2023-07-29T13:33:07;26.50;73.60
47162;DHT22;32921;53.256;8.198;2023-07-29T13:35:33;26.00;76.50
47162;DHT22;32921;53.256;8.198;2023-07-29T13:38:00;25.60;80.70
47162;DHT22;32921;53.256;8.198;2023-07-29T13:40:25;24.90;91.90
47162;DHT22;32921;53.256;8.198;2023-07-29T13:42:51;22.20;99.90
47162;DHT22;32921;53.256;8.198;2023-07-29T13:45:17;20.80;99.90
47162;DHT22;32921;53.256;8.198;2023-07-29T13:47:43;20.80;99.90
47162;DHT22;32921;53.256;8.198;2023-07-29T13:50:09;21.30;99.90
47162;DHT22;32921;53.256;8.198;2023-07-29T13:52:36;22.40;99.90
47162;DHT22;32921;53.256;8.198;2023-07-29T13:55:02;23.20;99.90
47162;DHT22;32921;53.256;8.198;2023-07-29T13:57:27;24.30;99.90
47162;DHT22;32921;53.256;8.198;2023-07-29T13:59:53;25.40;99.90
47162;DHT22;32921;53.256;8.198;2023-07-29T14:02:19;25.90;99.90
47162;DHT22;32921;53.256;8.198;2023-07-29T14:04:44;25.20;99.90
47162;DHT22;32921;53.256;8.198;2023-07-29T14:07:10;25.50;99.90
47162;DHT22;32921;53.256;8.198;2023-07-29T14:09:35;26.50;99.90
47162;DHT22;32921;53.256;8.198;2023-07-29T14:12:01;27.20;99.90
47162;DHT22;32921;53.256;8.198;2023-07-29T14:14:26;27.20;99.90
47162;DHT22;32921;53.256;8.198;2023-07-29T14:16:52;26.70;99.90
47162;DHT22;32921;53.256;8.198;2023-07-29T14:19:18;27.10;99.90
47162;DHT22;32921;53.256;8.198;2023-07-29T14:21:43;27.00;99.90
47162;DHT22;32921;53.256;8.198;2023-07-29T14:24:09;26.50;99.90
47162;DHT22;32921;53.256;8.198;2023-07-29T14:26:34;27.00;99.90
47162;DHT22;32921;53.256;8.198;2023-07-29T14:29:00;27.60;99.90
47162;DHT22;32921;53.256;8.198;2023-07-29T14:31:25;28.30;96.50
47162;DHT22;32921;53.256;8.198;2023-07-29T14:33:51;28.90;97.10
47162;DHT22;32921;53.256;8.198;2023-07-29T14:36:16;29.40;93.90
47162;DHT22;32921;53.256;8.198;2023-07-29T14:38:42;29.20;92.00
47162;DHT22;32921;53.256;8.198;2023-07-29T14:41:08;29.00;90.70
47162;DHT22;32921;53.256;8.198;2023-07-29T14:43:34;27.70;91.90
47162;DHT22;32921;53.256;8.198;2023-07-29T14:45:59;26.10;96.00
47162;DHT22;32921;53.256;8.198;2023-07-29T14:48:25;24.90;98.50
47162;DHT22;32921;53.256;8.198;2023-07-29T14:50:51;23.70;99.90
47162;DHT22;32921;53.256;8.198;2023-07-29T14:53:16;22.90;99.90
47162;DHT22;32921;53.256;8.198;2023-07-29T14:55:42;23.50;99.90
47162;DHT22;32921;53.256;8.198;2023-07-29T14:58:07;24.40;99.90
47162;DHT22;32921;53.256;8.198;2023-07-29T15:00:33;25.10;99.90
47162;DHT22;32921;53.256;8.198;2023-07-29T15:02:58;26.00;99.90
47162;DHT22;32921;53.256;8.198;2023-07-29T15:05:24;27.00;99.70
47162;DHT22;32921;53.256;8.198;2023-07-29T15:07:50;27.90;97.20
47162;DHT22;32921;53.256;8.198;2023-07-29T15:10:16;28.90;94.80
47162;DHT22;32921;53.256;8.198;2023-07-29T15:12:42;29.80;92.80
47162;DHT22;32921;53.256;8.198;2023-07-29T15:15:09;30.00;90.70
47162;DHT22;32921;53.256;8.198;2023-07-29T15:17:35;29.60;87.30
47162;DHT22;32921;53.256;8.198;2023-07-29T15:20:01;28.60;89.50
47162;DHT22;32921;53.256;8.198;2023-07-29T15:22:29;28.40;92.00
47162;DHT22;32921;53.256;8.198;2023-07-29T15:24:55;28.20;91.60
47162;DHT22;32921;53.256;8.198;2023-07-29T15:27:20;27.00;93.00
47162;DHT22;32921;53.256;8.198;2023-07-29T15:29:46;25.80;97.10
47162;DHT22;32921;53.256;8.198;2023-07-29T15:32:11;25.40;99.90
47162;DHT22;32921;53.256;8.198;2023-07-29T15:34:37;25.00;99.90
47162;DHT22;32921;53.256;8.198;2023-07-29T15:37:03;24.60;99.90
47162;DHT22;32921;53.256;8.198;2023-07-29T15:39:29;24.10;99.90
47162;DHT22;32921;53.256;8.198;2023-07-29T15:41:55;23.40;99.90
47162;DHT22;32921;53.256;8.198;2023-07-29T15:44:21;22.50;99.90
47162;DHT22;32921;53.256;8.198;2023-07-29T15:46:46;21.80;99.90
47162;DHT22;32921;53.256;8.198;2023-07-29T15:49:12;21.50;99.90
47162;DHT22;32921;53.256;8.198;2023-07-29T15:51:37;21.30;99.90
47162;DHT22;32921;53.256;8.198;2023-07-29T15:54:03;21.20;99.90
47162;DHT22;32921;53.256;8.198;2023-07-29T15:56:29;20.80;99.90
47162;DHT22;32921;53.256;8.198;2023-07-29T15:58:55;20.50;99.90
47162;DHT22;32921;53.256;8.198;2023-07-29T16:01:22;20.60;99.90
47162;DHT22;32921;53.256;8.198;2023-07-29T16:03:48;20.50;99.90
47162;DHT22;32921;53.256;8.198;2023-07-29T16:06:14;20.80;99.90
47162;DHT22;32921;53.256;8.198;2023-07-29T16:08:39;21.30;99.90
47162;DHT22;32921;53.256;8.198;2023-07-29T16:11:06;22.50;99.90
47162;DHT22;32921;53.256;8.198;2023-07-29T16:13:31;23.00;99.90
47162;DHT22;32921;53.256;8.198;2023-07-29T16:15:57;22.30;99.90
47162;DHT22;32921;53.256;8.198;2023-07-29T16:18:24;21.80;99.90
47162;DHT22;32921;53.256;8.198;2023-07-29T16:20:50;21.30;99.90
47162;DHT22;32921;53.256;8.198;2023-07-29T16:23:16;21.00;99.90
47162;DHT22;32921;53.256;8.198;2023-07-29T16:25:42;20.60;99.90
47162;DHT22;32921;53.256;8.198;2023-07-29T16:28:07;20.30;99.90
47162;DHT22;32921;53.256;8.198;2023-07-29T16:30:33;20.20;99.90
47162;DHT22;32921;53.256;8.198;2023-07-29T16:32:59;20.00;99.90
47162;DHT22;32921;53.256;8.198;2023-07-29T16:35:24;19.80;99.90
47162;DHT22;32921;53.256;8.198;2023-07-29T16:37:50;19.80;99.90